sensor_id;sensor_type;location;lat;lon;timestamp;pressure;altitude;pressure_sealevel;temperature;humidity
10688;BME280;5392;42.688;23.298;2023-01-06T00:01:07;57588.75;;;-144.48;100.00
10688;BME280;5392;42.688;23.298;2023-01-06T00:03:35;57638.84;;;-144.48;100.00
10688;BME280;5392;42.688;23.298;2023-01-06T00:06:03;57569.97;;;-144.48;100.00
10688;BME280;5392;42.688;23.298;2023-01-06T00:08:31;57582.50;;;-144.48;100.00
10688;BME280;5392;42.688;23.298;2023-01-06T00:11:21;57661.81;;;-144.48;100.00
10688;BME280;5392;42.688;23.298;2023-01-06T00:13:48;57576.22;;;-144.48;100.00
10688;BME280;5392;42.688;23.298;2023-01-06T00:16:17;57559.53;;;-144.48;100.00
10688;BME280;5392;42.688;23.298;2023-01-06T00:18:45;57574.16;;;-144.48;100.00
10688;BME280;5392;42.688;23.298;2023-01-06T00:21:13;57555.38;;;-144.48;100.00
10688;BME280;5392;42.688;23.298;2023-01-06T00:23:40;57590.84;;;-144.48;100.00
10688;BME280;5392;42.688;23.298;2023-01-06T00:26:10;57597.09;;;-144.48;100.00
10688;BME280;5392;42.688;23.298;2023-01-06T00:28:37;57567.88;;;-144.48;100.00
10688;BME280;5392;42.688;23.298;2023-01-06T00:31:09;57551.19;;;-144.48;100.00
10688;BME280;5392;42.688;23.298;2023-01-06T00:33:36;57553.28;;;-144.48;100.00
10688;BME280;5392;42.688;23.298;2023-01-06T00:36:05;57609.63;;;-144.48;100.00
10688;BME280;5392;42.688;23.298;2023-01-06T00:38:33;57605.47;;;-144.48;100.00
10688;BME280;5392;42.688;23.298;2023-01-06T00:41:06;57592.94;;;-144.48;100.00
10688;BME280;5392;42.688;23.298;2023-01-06T00:43:54;57582.50;;;-144.48;100.00
10688;BME280;5392;42.688;23.298;2023-01-06T00:46:21;57557.44;;;-144.48;100.00
10688;BME280;5392;42.688;23.298;2023-01-06T00:48:49;57599.19;;;-144.48;100.00
10688;BME280;5392;42.688;23.298;2023-01-06T00:51:30;57603.38;;;-144.48;100.00
10688;BME280;5392;42.688;23.298;2023-01-06T00:53:58;57547.00;;;-144.48;100.00
10688;BME280;5392;42.688;23.298;2023-01-06T00:56:26;57563.72;;;-144.48;100.00
10688;BME280;5392;42.688;23.298;2023-01-06T00:58:52;57576.22;;;-144.48;100.00
10688;BME280;5392;42.688;23.298;2023-01-06T01:01:19;57578.31;;;-144.48;100.00
10688;BME280;5392;42.688;23.298;2023-01-06T01:03:46;57620.06;;;-144.48;100.00
10688;BME280;5392;42.688;23.298;2023-01-06T01:06:13;57599.19;;;-144.48;100.00
10688;BME280;5392;42.688;23.298;2023-01-06T01:08:39;57613.81;;;-144.48;100.00
10688;BME280;5392;42.688;23.298;2023-01-06T01:11:08;57557.44;;;-144.48;100.00
10688;BME280;5392;42.688;23.298;2023-01-06T01:13:35;57613.81;;;-144.48;100.00
10688;BME280;5392;42.688;23.298;2023-01-06T01:16:05;57578.31;;;-144.48;100.00
10688;BME280;5392;42.688;23.298;2023-01-06T01:18:32;57555.38;;;-144.48;100.00
10688;BME280;5392;42.688;23.298;2023-01-06T01:21:00;57549.09;;;-144.48;100.00
10688;BME280;5392;42.688;23.298;2023-01-06T01:23:26;57578.31;;;-144.48;100.00
10688;BME280;5392;42.688;23.298;2023-01-06T01:25:54;57580.41;;;-144.48;100.00
10688;BME280;5392;42.688;23.298;2023-01-06T01:28:22;57597.09;;;-144.48;100.00
10688;BME280;5392;42.688;23.298;2023-01-06T01:30:48;57565.81;;;-144.48;100.00
10688;BME280;5392;42.688;23.298;2023-01-06T01:33:15;57530.31;;;-144.48;100.00
10688;BME280;5392;42.688;23.298;2023-01-06T01:35:42;57588.75;;;-144.48;100.00
10688;BME280;5392;42.688;23.298;2023-01-06T01:38:09;57592.94;;;-144.48;100.00
10688;BME280;5392;42.688;23.298;2023-01-06T01:40:35;57603.38;;;-144.48;100.00
10688;BME280;5392;42.688;23.298;2023-01-06T01:43:02;57567.88;;;-144.48;100.00
10688;BME280;5392;42.688;23.298;2023-01-06T01:45:29;57597.09;;;-144.48;100.00
10688;BME280;5392;42.688;23.298;2023-01-06T01:47:58;57588.75;;;-144.48;100.00
10688;BME280;5392;42.688;23.298;2023-01-06T01:53:16;57609.63;;;-144.48;100.00
10688;BME280;5392;42.688;23.298;2023-01-06T01:55:44;57595.03;;;-144.48;100.00
10688;BME280;5392;42.688;23.298;2023-01-06T01:58:15;57601.28;;;-144.48;100.00
10688;BME280;5392;42.688;23.298;2023-01-06T02:00:43;57626.34;;;-144.48;100.00
10688;BME280;5392;42.688;23.298;2023-01-06T02:03:11;57586.66;;;-144.48;100.00
10688;BME280;5392;42.688;23.298;2023-01-06T02:05:43;57544.94;;;-144.48;100.00
10688;BME280;5392;42.688;23.298;2023-01-06T02:08:27;57592.94;;;-144.48;100.00
10688;BME280;5392;42.688;23.298;2023-01-06T02:10:57;57597.09;;;-144.48;100.00
10688;BME280;5392;42.688;23.298;2023-01-06T02:13:24;57597.09;;;-144.48;100.00
10688;BME280;5392;42.688;23.298;2023-01-06T02:15:58;57592.94;;;-144.48;100.00
10688;BME280;5392;42.688;23.298;2023-01-06T02:18:38;57601.28;;;-144.48;100.00
10688;BME280;5392;42.688;23.298;2023-01-06T02:21:17;57609.63;;;-144.48;100.00
10688;BME280;5392;42.688;23.298;2023-01-06T02:30:07;57601.28;;;-144.48;100.00
10688;BME280;5392;42.688;23.298;2023-01-06T02:40:57;57578.31;;;-144.48;100.00
10688;BME280;5392;42.688;23.298;2023-01-06T02:49:15;57599.19;;;-144.48;100.00
10688;BME280;5392;42.688;23.298;2023-01-06T02:51:54;57613.81;;;-144.48;100.00
10688;BME280;5392;42.688;23.298;2023-01-06T02:54:40;57557.44;;;-144.48;100.00
10688;BME280;5392;42.688;23.298;2023-01-06T02:57:36;57563.72;;;-144.48;100.00
10688;BME280;5392;42.688;23.298;2023-01-06T03:00:27;57559.53;;;-144.48;100.00
10688;BME280;5392;42.688;23.298;2023-01-06T03:03:01;57576.22;;;-144.48;100.00
10688;BME280;5392;42.688;23.298;2023-01-06T03:05:32;57557.44;;;-144.48;100.00
10688;BME280;5392;42.688;23.298;2023-01-06T03:08:03;57590.84;;;-144.48;100.00
10688;BME280;5392;42.688;23.298;2023-01-06T03:10:31;57609.63;;;-144.48;100.00
10688;BME280;5392;42.688;23.298;2023-01-06T03:13:15;57592.94;;;-144.48;100.00
10688;BME280;5392;42.688;23.298;2023-01-06T03:15:42;57615.91;;;-144.48;100.00
10688;BME280;5392;42.688;23.298;2023-01-06T03:18:09;57580.41;;;-144.48;100.00
10688;BME280;5392;42.688;23.298;2023-01-06T03:20:36;57584.59;;;-144.48;100.00
10688;BME280;5392;42.688;23.298;2023-01-06T03:23:04;57565.81;;;-144.48;100.00
10688;BME280;5392;42.688;23.298;2023-01-06T03:25:31;57592.94;;;-144.48;100.00
10688;BME280;5392;42.688;23.298;2023-01-06T03:27:58;57576.22;;;-144.48;100.00
10688;BME280;5392;42.688;23.298;2023-01-06T03:30:28;57605.47;;;-144.48;100.00
10688;BME280;5392;42.688;23.298;2023-01-06T03:33:08;57607.53;;;-144.48;100.00
10688;BME280;5392;42.688;23.298;2023-01-06T03:35:51;57569.97;;;-144.48;100.00
10688;BME280;5392;42.688;23.298;2023-01-06T03:41:03;57622.16;;;-144.48;100.00
10688;BME280;5392;42.688;23.298;2023-01-06T03:43:40;57590.84;;;-144.48;100.00
10688;BME280;5392;42.688;23.298;2023-01-06T03:46:40;57613.81;;;-144.48;100.00
10688;BME280;5392;42.688;23.298;2023-01-06T03:52:06;57597.09;;;-144.48;100.00
10688;BME280;5392;42.688;23.298;2023-01-06T03:54:56;57565.81;;;-144.48;100.00
10688;BME280;5392;42.688;23.298;2023-01-06T03:57:34;57595.03;;;-144.48;100.00
10688;BME280;5392;42.688;23.298;2023-01-06T04:00:06;57547.00;;;-144.48;100.00
10688;BME280;5392;42.688;23.298;2023-01-06T04:02:38;57569.97;;;-144.48;100.00
10688;BME280;5392;42.688;23.298;2023-01-06T04:05:16;57563.72;;;-144.48;100.00
10688;BME280;5392;42.688;23.298;2023-01-06T04:07:44;57576.22;;;-144.48;100.00
10688;BME280;5392;42.688;23.298;2023-01-06T04:10:13;57551.19;;;-144.48;100.00
10688;BME280;5392;42.688;23.298;2023-01-06T04:12:40;57599.19;;;-144.48;100.00
10688;BME280;5392;42.688;23.298;2023-01-06T04:15:08;57590.84;;;-144.48;100.00
10688;BME280;5392;42.688;23.298;2023-01-06T04:17:37;57578.31;;;-144.48;100.00
10688;BME280;5392;42.688;23.298;2023-01-06T04:20:05;57574.16;;;-144.48;100.00
10688;BME280;5392;42.688;23.298;2023-01-06T04:22:32;57574.16;;;-144.48;100.00
10688;BME280;5392;42.688;23.298;2023-01-06T04:24:59;57576.22;;;-144.48;100.00
10688;BME280;5392;42.688;23.298;2023-01-06T04:27:25;57576.22;;;-144.48;100.00
10688;BME280;5392;42.688;23.298;2023-01-06T04:29:52;57599.19;;;-144.48;100.00
10688;BME280;5392;42.688;23.298;2023-01-06T04:32:19;57565.81;;;-144.48;100.00
10688;BME280;5392;42.688;23.298;2023-01-06T04:34:45;57584.59;;;-144.48;100.00
10688;BME280;5392;42.688;23.298;2023-01-06T04:37:12;57576.22;;;-144.48;100.00
10688;BME280;5392;42.688;23.298;2023-01-06T04:39:39;57605.47;;;-144.48;100.00
10688;BME280;5392;42.688;23.298;2023-01-06T04:42:06;57609.63;;;-144.48;100.00
10688;BME280;5392;42.688;23.298;2023-01-06T04:44:32;57628.41;;;-144.48;100.00
10688;BME280;5392;42.688;23.298;2023-01-06T04:46:59;57590.84;;;-144.48;100.00
10688;BME280;5392;42.688;23.298;2023-01-06T04:49:26;57597.09;;;-144.48;100.00
10688;BME280;5392;42.688;23.298;2023-01-06T04:51:52;57567.88;;;-144.48;100.00
10688;BME280;5392;42.688;23.298;2023-01-06T04:54:19;57586.66;;;-144.48;100.00
10688;BME280;5392;42.688;23.298;2023-01-06T04:56:46;57574.16;;;-144.48;100.00
10688;BME280;5392;42.688;23.298;2023-01-06T04:59:13;57572.06;;;-144.48;100.00
10688;BME280;5392;42.688;23.298;2023-01-06T05:01:39;57601.28;;;-144.48;100.00
10688;BME280;5392;42.688;23.298;2023-01-06T05:04:06;57599.19;;;-144.48;100.00
10688;BME280;5392;42.688;23.298;2023-01-06T05:06:33;57607.53;;;-144.48;100.00
10688;BME280;5392;42.688;23.298;2023-01-06T05:09:00;57586.66;;;-144.48;100.00
10688;BME280;5392;42.688;23.298;2023-01-06T05:11:27;57555.38;;;-144.48;100.00
10688;BME280;5392;42.688;23.298;2023-01-06T05:13:54;57557.44;;;-144.48;100.00
10688;BME280;5392;42.688;23.298;2023-01-06T05:16:29;57605.47;;;-144.48;100.00
10688;BME280;5392;42.688;23.298;2023-01-06T05:18:56;57605.47;;;-144.48;100.00
10688;BME280;5392;42.688;23.298;2023-01-06T05:21:26;57569.97;;;-144.48;100.00
10688;BME280;5392;42.688;23.298;2023-01-06T05:23:53;57597.09;;;-144.48;100.00
10688;BME280;5392;42.688;23.298;2023-01-06T05:26:22;57576.22;;;-144.48;100.00
10688;BME280;5392;42.688;23.298;2023-01-06T05:28:49;57609.63;;;-144.48;100.00
10688;BME280;5392;42.688;23.298;2023-01-06T05:31:17;57553.28;;;-144.48;100.00
10688;BME280;5392;42.688;23.298;2023-01-06T05:33:44;57547.00;;;-144.48;100.00
10688;BME280;5392;42.688;23.298;2023-01-06T05:36:13;57605.47;;;-144.48;100.00
10688;BME280;5392;42.688;23.298;2023-01-06T05:38:41;57603.38;;;-144.48;100.00
10688;BME280;5392;42.688;23.298;2023-01-06T05:41:08;57569.97;;;-144.48;100.00
10688;BME280;5392;42.688;23.298;2023-01-06T05:43:35;57569.97;;;-144.48;100.00
10688;BME280;5392;42.688;23.298;2023-01-06T05:46:07;57584.59;;;-144.48;100.00
10688;BME280;5392;42.688;23.298;2023-01-06T05:48:35;57588.75;;;-144.48;100.00
10688;BME280;5392;42.688;23.298;2023-01-06T05:51:04;57590.84;;;-144.48;100.00
10688;BME280;5392;42.688;23.298;2023-01-06T05:53:33;57563.72;;;-144.48;100.00
10688;BME280;5392;42.688;23.298;2023-01-06T05:56:02;57569.97;;;-144.48;100.00
10688;BME280;5392;42.688;23.298;2023-01-06T05:58:29;57605.47;;;-144.48;100.00
10688;BME280;5392;42.688;23.298;2023-01-06T06:01:00;57555.38;;;-144.48;100.00
10688;BME280;5392;42.688;23.298;2023-01-06T06:03:26;57586.66;;;-144.48;100.00
10688;BME280;5392;42.688;23.298;2023-01-06T06:05:53;57605.47;;;-144.48;100.00
10688;BME280;5392;42.688;23.298;2023-01-06T06:08:21;57576.22;;;-144.48;100.00
10688;BME280;5392;42.688;23.298;2023-01-06T06:10:48;57588.75;;;-144.48;100.00
10688;BME280;5392;42.688;23.298;2023-01-06T06:13:15;57582.50;;;-144.48;100.00
10688;BME280;5392;42.688;23.298;2023-01-06T06:15:42;57632.59;;;-144.48;100.00
10688;BME280;5392;42.688;23.298;2023-01-06T06:18:08;57584.59;;;-144.48;100.00
10688;BME280;5392;42.688;23.298;2023-01-06T06:20:35;57609.63;;;-144.48;98.37
10688;BME280;5392;42.688;23.298;2023-01-06T06:23:02;57611.72;;;-144.48;96.01
10688;BME280;5392;42.688;23.298;2023-01-06T06:25:30;57592.94;;;-144.48;92.82
10688;BME280;5392;42.688;23.298;2023-01-06T06:27:58;57630.50;;;-144.48;89.67
10688;BME280;5392;42.688;23.298;2023-01-06T06:30:25;57607.53;;;-144.48;87.56
10688;BME280;5392;42.688;23.298;2023-01-06T06:32:52;57576.22;;;-144.48;85.41
10688;BME280;5392;42.688;23.298;2023-01-06T06:35:18;57580.41;;;-144.48;83.48
10688;BME280;5392;42.688;23.298;2023-01-06T06:37:45;57547.00;;;-144.48;82.58
10688;BME280;5392;42.688;23.298;2023-01-06T06:40:12;57536.56;;;-144.48;80.17
10688;BME280;5392;42.688;23.298;2023-01-06T06:42:39;57578.31;;;-144.48;79.64
10688;BME280;5392;42.688;23.298;2023-01-06T06:45:07;57611.72;;;-144.48;79.39
10688;BME280;5392;42.688;23.298;2023-01-06T06:47:33;57555.38;;;-144.48;76.99
10688;BME280;5392;42.688;23.298;2023-01-06T06:50:00;57590.84;;;-144.48;75.78
10688;BME280;5392;42.688;23.298;2023-01-06T06:52:27;57551.19;;;-144.48;74.80
10688;BME280;5392;42.688;23.298;2023-01-06T06:54:53;57569.97;;;-144.48;74.41
10688;BME280;5392;42.688;23.298;2023-01-06T06:57:20;57569.97;;;-144.48;73.32
10688;BME280;5392;42.688;23.298;2023-01-06T06:59:47;57530.31;;;-144.48;72.14
10688;BME280;5392;42.688;23.298;2023-01-06T07:02:14;57580.41;;;-144.48;71.35
10688;BME280;5392;42.688;23.298;2023-01-06T07:04:41;57578.31;;;-144.48;72.19
10688;BME280;5392;42.688;23.298;2023-01-06T07:07:08;57519.88;;;-144.48;71.78
10688;BME280;5392;42.688;23.298;2023-01-06T07:09:34;57542.84;;;-144.48;71.09
10688;BME280;5392;42.688;23.298;2023-01-06T07:12:01;57586.66;;;-144.48;70.24
10688;BME280;5392;42.688;23.298;2023-01-06T07:14:28;57553.28;;;-144.48;71.00
10688;BME280;5392;42.688;23.298;2023-01-06T07:16:58;57567.88;;;-144.48;70.55
10688;BME280;5392;42.688;23.298;2023-01-06T07:19:25;57547.00;;;-144.48;70.55
10688;BME280;5392;42.688;23.298;2023-01-06T07:21:52;57567.88;;;-144.48;71.40
10688;BME280;5392;42.688;23.298;2023-01-06T07:24:19;57559.53;;;-144.48;71.14
10688;BME280;5392;42.688;23.298;2023-01-06T07:26:47;57578.31;;;-144.48;70.96
10688;BME280;5392;42.688;23.298;2023-01-06T07:29:15;57547.00;;;-144.48;71.74
10688;BME280;5392;42.688;23.298;2023-01-06T07:31:42;57534.50;;;-144.48;70.73
10688;BME280;5392;42.688;23.298;2023-01-06T07:34:10;57576.22;;;-144.48;71.22
10688;BME280;5392;42.688;23.298;2023-01-06T07:36:36;57557.44;;;-144.48;70.98
10688;BME280;5392;42.688;23.298;2023-01-06T07:39:05;57561.63;;;-144.48;71.57
10688;BME280;5392;42.688;23.298;2023-01-06T07:41:32;57578.31;;;-144.48;71.70
10688;BME280;5392;42.688;23.298;2023-01-06T07:43:58;57605.47;;;-144.48;72.11
10688;BME280;5392;42.688;23.298;2023-01-06T07:46:25;57553.28;;;-144.48;71.56
10688;BME280;5392;42.688;23.298;2023-01-06T07:48:52;57544.94;;;-144.48;71.50
10688;BME280;5392;42.688;23.298;2023-01-06T07:51:19;57597.09;;;-144.48;73.82
10688;BME280;5392;42.688;23.298;2023-01-06T07:53:46;57597.09;;;-144.48;73.97
10688;BME280;5392;42.688;23.298;2023-01-06T07:56:13;57563.72;;;-144.48;75.03
10688;BME280;5392;42.688;23.298;2023-01-06T07:58:40;57595.03;;;-144.48;76.56
10688;BME280;5392;42.688;23.298;2023-01-06T08:01:08;57536.56;;;-144.48;77.21
10688;BME280;5392;42.688;23.298;2023-01-06T08:03:35;57563.72;;;-144.48;77.96
10688;BME280;5392;42.688;23.298;2023-01-06T08:06:09;57582.50;;;-144.48;79.26
10688;BME280;5392;42.688;23.298;2023-01-06T08:08:37;57601.28;;;-144.48;80.32
10688;BME280;5392;42.688;23.298;2023-01-06T08:11:06;57563.72;;;-144.48;80.67
10688;BME280;5392;42.688;23.298;2023-01-06T08:13:33;57526.13;;;-144.48;81.03
10688;BME280;5392;42.688;23.298;2023-01-06T08:16:03;57557.44;;;-144.48;80.87
10688;BME280;5392;42.688;23.298;2023-01-06T08:18:31;57559.53;;;-144.48;80.78
10688;BME280;5392;42.688;23.298;2023-01-06T08:20:59;57524.06;;;-144.48;80.62
10688;BME280;5392;42.688;23.298;2023-01-06T08:23:27;57549.09;;;-144.48;80.08
10688;BME280;5392;42.688;23.298;2023-01-06T08:26:03;57599.19;;;-144.48;80.95
10688;BME280;5392;42.688;23.298;2023-01-06T08:28:30;57597.09;;;-144.48;81.76
10688;BME280;5392;42.688;23.298;2023-01-06T08:30:58;57561.63;;;-144.48;83.09
10688;BME280;5392;42.688;23.298;2023-01-06T08:33:26;57555.38;;;-144.48;83.26
10688;BME280;5392;42.688;23.298;2023-01-06T08:36:00;57592.94;;;-144.48;82.02
10688;BME280;5392;42.688;23.298;2023-01-06T08:38:28;57553.28;;;-144.48;82.12
10688;BME280;5392;42.688;23.298;2023-01-06T08:40:56;57584.59;;;-144.48;81.80
10688;BME280;5392;42.688;23.298;2023-01-06T08:43:23;57567.88;;;-144.48;82.54
10688;BME280;5392;42.688;23.298;2023-01-06T08:45:51;57561.63;;;-144.48;82.31
10688;BME280;5392;42.688;23.298;2023-01-06T08:48:18;57511.53;;;-144.48;81.80
10688;BME280;5392;42.688;23.298;2023-01-06T08:50:46;57574.16;;;-144.48;80.76
10688;BME280;5392;42.688;23.298;2023-01-06T08:53:13;57563.72;;;-144.48;81.25
10688;BME280;5392;42.688;23.298;2023-01-06T08:55:41;57574.16;;;-144.48;81.50
10688;BME280;5392;42.688;23.298;2023-01-06T08:58:08;57532.41;;;-144.48;80.46
10688;BME280;5392;42.688;23.298;2023-01-06T09:00:39;57536.56;;;-144.48;79.62
10688;BME280;5392;42.688;23.298;2023-01-06T09:03:06;57557.44;;;-144.48;79.25
10688;BME280;5392;42.688;23.298;2023-01-06T09:05:33;57526.13;;;-144.48;78.48
10688;BME280;5392;42.688;23.298;2023-01-06T09:08:00;57592.94;;;-144.48;77.33
10688;BME280;5392;42.688;23.298;2023-01-06T09:10:27;57590.84;;;-144.48;77.29
10688;BME280;5392;42.688;23.298;2023-01-06T09:12:53;57580.41;;;-144.48;78.53
10688;BME280;5392;42.688;23.298;2023-01-06T09:15:20;57603.38;;;-144.48;78.36
10688;BME280;5392;42.688;23.298;2023-01-06T09:17:47;57551.19;;;-144.48;77.93
10688;BME280;5392;42.688;23.298;2023-01-06T09:20:14;57603.38;;;-144.48;77.57
10688;BME280;5392;42.688;23.298;2023-01-06T09:22:40;57542.84;;;-144.48;77.58
10688;BME280;5392;42.688;23.298;2023-01-06T09:25:08;57590.84;;;-144.48;77.86
10688;BME280;5392;42.688;23.298;2023-01-06T09:27:34;57544.94;;;-144.48;76.59
10688;BME280;5392;42.688;23.298;2023-01-06T09:30:05;57559.53;;;-144.48;75.62
10688;BME280;5392;42.688;23.298;2023-01-06T09:32:33;57553.28;;;-144.48;76.67
10688;BME280;5392;42.688;23.298;2023-01-06T09:35:00;57551.19;;;-144.48;76.43
10688;BME280;5392;42.688;23.298;2023-01-06T09:37:27;57563.72;;;-144.48;76.20
10688;BME280;5392;42.688;23.298;2023-01-06T09:39:53;57565.81;;;-144.48;76.32
10688;BME280;5392;42.688;23.298;2023-01-06T09:42:29;57588.75;;;-144.48;76.28
10688;BME280;5392;42.688;23.298;2023-01-06T09:45:03;57557.44;;;-144.48;76.64
10688;BME280;5392;42.688;23.298;2023-01-06T09:47:35;57551.19;;;-144.48;76.38
10688;BME280;5392;42.688;23.298;2023-01-06T09:50:11;57555.38;;;-144.48;77.04
10688;BME280;5392;42.688;23.298;2023-01-06T09:52:46;57578.31;;;-144.48;77.29
10688;BME280;5392;42.688;23.298;2023-01-06T09:55:40;57565.81;;;-144.48;77.32
10688;BME280;5392;42.688;23.298;2023-01-06T09:58:21;57569.97;;;-144.48;77.36
10688;BME280;5392;42.688;23.298;2023-01-06T10:00:54;57597.09;;;-144.48;75.88
10688;BME280;5392;42.688;23.298;2023-01-06T10:03:24;57597.09;;;-144.48;74.81
10688;BME280;5392;42.688;23.298;2023-01-06T10:17:40;57582.50;;;-144.48;71.63
10688;BME280;5392;42.688;23.298;2023-01-06T10:23:38;57551.19;;;-144.48;71.50
10688;BME280;5392;42.688;23.298;2023-01-06T10:25:49;57542.84;;;-144.48;70.74
10688;BME280;5392;42.688;23.298;2023-01-06T10:28:27;57557.44;;;-144.48;70.27
10688;BME280;5392;42.688;23.298;2023-01-06T10:31:02;57592.94;;;-144.48;69.98
10688;BME280;5392;42.688;23.298;2023-01-06T10:33:34;57559.53;;;-144.48;70.48
10688;BME280;5392;42.688;23.298;2023-01-06T10:36:11;57549.09;;;-144.48;70.49
10688;BME280;5392;42.688;23.298;2023-01-06T10:38:47;57521.97;;;-144.48;70.21
10688;BME280;5392;42.688;23.298;2023-01-06T10:44:12;57547.00;;;-144.48;70.43
10688;BME280;5392;42.688;23.298;2023-01-06T10:46:40;57538.66;;;-144.48;70.87
10688;BME280;5392;42.688;23.298;2023-01-06T10:49:16;57567.88;;;-144.48;71.37
10688;BME280;5392;42.688;23.298;2023-01-06T10:51:50;57565.81;;;-144.48;70.70
10688;BME280;5392;42.688;23.298;2023-01-06T10:54:22;57557.44;;;-144.48;70.49
10688;BME280;5392;42.688;23.298;2023-01-06T10:56:53;57578.31;;;-144.48;70.34
10688;BME280;5392;42.688;23.298;2023-01-06T10:59:21;57544.94;;;-144.48;70.15
10688;BME280;5392;42.688;23.298;2023-01-06T11:01:53;57574.16;;;-144.48;69.46
10688;BME280;5392;42.688;23.298;2023-01-06T11:04:24;57559.53;;;-144.48;70.19
10688;BME280;5392;42.688;23.298;2023-01-06T11:06:59;57561.63;;;-144.48;71.26
10688;BME280;5392;42.688;23.298;2023-01-06T11:12:01;57549.09;;;-144.48;70.89
10688;BME280;5392;42.688;23.298;2023-01-06T11:14:30;57561.63;;;-144.48;71.08
10688;BME280;5392;42.688;23.298;2023-01-06T11:17:03;57553.28;;;-144.48;71.34
10688;BME280;5392;42.688;23.298;2023-01-06T11:22:23;57536.56;;;-144.48;72.38
10688;BME280;5392;42.688;23.298;2023-01-06T11:24:53;57588.75;;;-144.48;72.78
10688;BME280;5392;42.688;23.298;2023-01-06T11:27:20;57574.16;;;-144.48;72.22
10688;BME280;5392;42.688;23.298;2023-01-06T11:29:46;57555.38;;;-144.48;71.72
10688;BME280;5392;42.688;23.298;2023-01-06T11:32:17;57561.63;;;-144.48;70.84
10688;BME280;5392;42.688;23.298;2023-01-06T11:34:54;57559.53;;;-144.48;70.63
10688;BME280;5392;42.688;23.298;2023-01-06T11:37:37;57582.50;;;-144.48;69.74
10688;BME280;5392;42.688;23.298;2023-01-06T11:42:48;57567.88;;;-144.48;70.03
10688;BME280;5392;42.688;23.298;2023-01-06T11:45:47;57526.13;;;-144.48;69.88
10688;BME280;5392;42.688;23.298;2023-01-06T11:48:21;57555.38;;;-144.48;70.20
10688;BME280;5392;42.688;23.298;2023-01-06T11:50:57;57559.53;;;-144.48;70.19
10688;BME280;5392;42.688;23.298;2023-01-06T11:53:25;57551.19;;;-144.48;70.01
10688;BME280;5392;42.688;23.298;2023-01-06T11:55:59;57580.41;;;-144.48;70.73
10688;BME280;5392;42.688;23.298;2023-01-06T11:59:08;57551.19;;;-144.48;70.64
10688;BME280;5392;42.688;23.298;2023-01-06T12:01:52;57559.53;;;-144.48;69.95
10688;BME280;5392;42.688;23.298;2023-01-06T12:04:37;57584.59;;;-144.48;69.85
10688;BME280;5392;42.688;23.298;2023-01-06T12:09:58;57517.78;;;-144.48;70.83
10688;BME280;5392;42.688;23.298;2023-01-06T12:12:27;57584.59;;;-144.48;71.07
10688;BME280;5392;42.688;23.298;2023-01-06T12:14:54;57605.47;;;-144.48;71.45
10688;BME280;5392;42.688;23.298;2023-01-06T12:20:46;57584.59;;;-144.48;71.24
10688;BME280;5392;42.688;23.298;2023-01-06T12:22:59;57561.63;;;-144.48;71.29
10688;BME280;5392;42.688;23.298;2023-01-06T12:25:34;57576.22;;;-144.48;71.03
10688;BME280;5392;42.688;23.298;2023-01-06T12:28:05;57584.59;;;-144.48;71.20
10688;BME280;5392;42.688;23.298;2023-01-06T12:30:57;57590.84;;;-144.48;71.25
10688;BME280;5392;42.688;23.298;2023-01-06T12:33:34;57559.53;;;-144.48;71.56
10688;BME280;5392;42.688;23.298;2023-01-06T12:36:11;57555.38;;;-144.48;71.98
10688;BME280;5392;42.688;23.298;2023-01-06T12:39:18;57561.63;;;-144.48;72.37
10688;BME280;5392;42.688;23.298;2023-01-06T12:47:21;57605.47;;;-144.48;72.87
10688;BME280;5392;42.688;23.298;2023-01-06T12:52:49;57559.53;;;-144.48;72.32
10688;BME280;5392;42.688;23.298;2023-01-06T12:55:38;57561.63;;;-144.48;71.62
10688;BME280;5392;42.688;23.298;2023-01-06T12:58:20;57547.00;;;-144.48;72.38
10688;BME280;5392;42.688;23.298;2023-01-06T13:00:58;57561.63;;;-144.48;72.86
10688;BME280;5392;42.688;23.298;2023-01-06T13:18:05;57580.41;;;-144.48;71.37
10688;BME280;5392;42.688;23.298;2023-01-06T13:20:43;57553.28;;;-144.48;71.97
10688;BME280;5392;42.688;23.298;2023-01-06T13:28:46;57595.03;;;-144.48;72.06
10688;BME280;5392;42.688;23.298;2023-01-06T13:34:43;57549.09;;;-144.48;72.77
10688;BME280;5392;42.688;23.298;2023-01-06T13:40:18;57547.00;;;-144.48;73.13
10688;BME280;5392;42.688;23.298;2023-01-06T13:43:06;57503.19;;;-144.48;73.41
10688;BME280;5392;42.688;23.298;2023-01-06T13:45:40;57563.72;;;-144.48;73.59
10688;BME280;5392;42.688;23.298;2023-01-06T13:48:15;57542.84;;;-144.48;73.42
10688;BME280;5392;42.688;23.298;2023-01-06T13:50:44;57532.41;;;-144.48;73.77
10688;BME280;5392;42.688;23.298;2023-01-06T13:53:22;57511.53;;;-144.48;74.02
10688;BME280;5392;42.688;23.298;2023-01-06T13:56:22;57580.41;;;-144.48;74.05
10688;BME280;5392;42.688;23.298;2023-01-06T13:58:50;57574.16;;;-144.48;74.96
10688;BME280;5392;42.688;23.298;2023-01-06T14:01:30;57538.66;;;-144.48;75.83
10688;BME280;5392;42.688;23.298;2023-01-06T14:06:59;57584.59;;;-144.48;75.90
10688;BME280;5392;42.688;23.298;2023-01-06T14:09:26;57572.06;;;-144.48;76.03
10688;BME280;5392;42.688;23.298;2023-01-06T14:12:06;57565.81;;;-144.48;76.42
10688;BME280;5392;42.688;23.298;2023-01-06T14:14:35;57530.31;;;-144.48;75.91
10688;BME280;5392;42.688;23.298;2023-01-06T14:17:04;57521.97;;;-144.48;76.56
10688;BME280;5392;42.688;23.298;2023-01-06T14:19:38;57505.25;;;-144.48;76.01
10688;BME280;5392;42.688;23.298;2023-01-06T14:22:16;57572.06;;;-144.48;75.48
10688;BME280;5392;42.688;23.298;2023-01-06T14:24:50;57555.38;;;-144.48;75.61
10688;BME280;5392;42.688;23.298;2023-01-06T14:30:30;57634.69;;;-144.48;76.29
10688;BME280;5392;42.688;23.298;2023-01-06T14:36:02;57513.63;;;-144.48;76.36
10688;BME280;5392;42.688;23.298;2023-01-06T14:38:34;57576.22;;;-144.48;76.44